createdAt,value
2023-01-05T00:00:55.230Z,998.33
2023-01-05T00:01:55.188Z,998.34
2023-01-05T00:02:55.174Z,998.35
2023-01-05T00:03:55.148Z,998.42
2023-01-05T00:04:55.224Z,998.34
2023-01-05T00:05:55.129Z,998.34
2023-01-05T00:06:55.081Z,998.28
2023-01-05T00:07:55.087Z,998.38
2023-01-05T00:08:55.051Z,998.41
2023-01-05T00:09:55.067Z,998.51
2023-01-05T00:10:55.044Z,998.43
2023-01-05T00:11:55.037Z,998.45
2023-01-05T00:12:55.010Z,998.29
2023-01-05T00:13:55.001Z,998.26
2023-01-05T00:14:54.988Z,998.34
2023-01-05T00:15:54.978Z,998.27
2023-01-05T00:16:55.018Z,998.23
2023-01-05T00:17:54.970Z,998.15
2023-01-05T00:18:55.964Z,998.21
2023-01-05T00:19:54.934Z,998.22
2023-01-05T00:20:55.003Z,998.06
2023-01-05T00:21:54.905Z,998.11
2023-01-05T00:22:54.892Z,998.09
2023-01-05T00:23:54.929Z,998.08
2023-01-05T00:24:54.884Z,998.01
2023-01-05T00:25:54.855Z,998.03
2023-01-05T00:26:54.851Z,998.04
2023-01-05T00:27:54.846Z,997.98
2023-01-05T00:28:54.849Z,997.98
2023-01-05T00:29:54.816Z,998.00
2023-01-05T00:30:54.798Z,997.94
2023-01-05T00:31:54.862Z,998.06
2023-01-05T00:32:54.803Z,998.01
2023-01-05T00:33:54.792Z,997.88
2023-01-05T00:34:54.771Z,997.92
2023-01-05T00:35:54.770Z,997.99
2023-01-05T00:36:54.726Z,997.91
2023-01-05T00:37:54.714Z,997.89
2023-01-05T00:38:54.723Z,997.94
2023-01-05T00:39:54.689Z,997.82
2023-01-05T00:40:54.723Z,997.97
2023-01-05T00:41:54.680Z,997.89
2023-01-05T00:42:54.677Z,998.02
2023-01-05T00:43:54.652Z,997.95
2023-01-05T00:44:54.657Z,997.89
2023-01-05T00:45:54.699Z,997.93
2023-01-05T00:46:54.642Z,997.92
2023-01-05T00:47:54.603Z,997.82
2023-01-05T00:48:54.585Z,997.91
2023-01-05T00:49:54.587Z,997.87
2023-01-05T00:50:54.577Z,997.93
2023-01-05T00:51:54.554Z,997.84
2023-01-05T00:52:54.570Z,997.91
2023-01-05T00:53:54.543Z,997.84
2023-01-05T00:54:54.529Z,997.92
2023-01-05T00:55:54.505Z,997.89
2023-01-05T00:56:54.504Z,997.90
2023-01-05T00:57:54.520Z,997.91
2023-01-05T00:58:54.478Z,997.89
2023-01-05T00:59:54.460Z,997.99
2023-01-05T01:00:54.478Z,997.94
2023-01-05T01:01:54.534Z,997.89
2023-01-05T01:02:54.465Z,997.96
2023-01-05T01:03:54.450Z,998.03
2023-01-05T01:04:54.460Z,997.98
2023-01-05T01:05:54.388Z,997.96
2023-01-05T01:06:54.394Z,997.88
2023-01-05T01:07:54.394Z,997.92
2023-01-05T01:08:54.358Z,997.92
2023-01-05T01:09:54.435Z,997.98
2023-01-05T01:10:54.348Z,998.07
2023-01-05T01:12:23.815Z,998.08
2023-01-05T01:13:23.768Z,998.15
2023-01-05T01:14:23.772Z,998.09
2023-01-05T01:15:23.779Z,998.10
2023-01-05T01:16:23.822Z,998.17
2023-01-05T01:17:23.782Z,998.16
2023-01-05T01:18:23.731Z,998.29
2023-01-05T01:19:23.722Z,998.38
2023-01-05T01:20:23.721Z,998.38
2023-01-05T01:21:23.706Z,998.44
2023-01-05T01:22:23.680Z,998.44
2023-01-05T01:23:23.669Z,998.40
2023-01-05T01:24:23.681Z,998.41
2023-01-05T01:25:23.641Z,998.43
2023-01-05T01:26:23.655Z,998.50
2023-01-05T01:27:23.630Z,998.35
2023-01-05T01:28:23.613Z,998.37
2023-01-05T01:29:23.619Z,998.37
2023-01-05T01:30:23.623Z,998.40
2023-01-05T01:31:23.604Z,998.39
2023-01-05T01:32:23.573Z,998.42
2023-01-05T01:33:23.560Z,998.40
2023-01-05T01:34:23.539Z,998.35
2023-01-05T01:35:23.531Z,998.35
2023-01-05T01:36:23.567Z,998.38
2023-01-05T01:37:23.546Z,998.38
2023-01-05T01:38:23.488Z,998.39
2023-01-05T01:39:23.495Z,998.42
2023-01-05T01:40:23.463Z,998.43
2023-01-05T01:41:23.473Z,998.48
2023-01-05T01:42:23.444Z,998.54
2023-01-05T01:43:23.476Z,998.53
2023-01-05T01:44:23.417Z,998.48
2023-01-05T01:45:23.429Z,998.50
2023-01-05T01:46:23.450Z,998.56
2023-01-05T01:47:23.383Z,998.56
2023-01-05T01:48:23.405Z,998.55
2023-01-05T01:49:23.388Z,998.53
2023-01-05T01:50:23.373Z,998.52
2023-01-05T01:51:23.340Z,998.54
2023-01-05T01:52:23.321Z,998.61
2023-01-05T01:53:23.314Z,998.56
2023-01-05T01:54:23.327Z,998.60
2023-01-05T01:55:23.295Z,998.60
2023-01-05T01:56:23.266Z,998.60
2023-01-05T01:57:23.264Z,998.63
2023-01-05T01:58:23.258Z,998.64
2023-01-05T01:59:23.276Z,998.67
2023-01-05T02:00:23.323Z,998.61
2023-01-05T02:01:23.338Z,998.58
2023-01-05T02:02:23.300Z,998.61
2023-01-05T02:03:23.188Z,998.64
2023-01-05T02:04:23.236Z,998.56
2023-01-05T02:05:23.207Z,998.64
2023-01-05T02:06:23.165Z,998.64
2023-01-05T02:07:23.148Z,998.64
2023-01-05T02:08:23.144Z,998.63
2023-01-05T02:09:23.138Z,998.69
2023-01-05T02:10:23.120Z,998.68
2023-01-05T02:11:23.123Z,998.68
2023-01-05T02:12:23.124Z,998.62
2023-01-05T02:13:29.496Z,998.62
2023-01-05T02:14:24.091Z,998.67
2023-01-05T02:15:23.056Z,998.63
2023-01-05T02:16:23.169Z,998.68
2023-01-05T02:17:23.040Z,998.70
2023-01-05T02:18:23.082Z,998.68
2023-01-05T02:19:23.035Z,998.66
2023-01-05T02:20:23.004Z,998.66
2023-01-05T02:21:23.011Z,998.67
2023-01-05T02:22:23.015Z,998.57
2023-01-05T02:23:22.966Z,998.62
2023-01-05T02:24:22.954Z,998.65
2023-01-05T02:25:22.949Z,998.59
2023-01-05T02:26:22.949Z,998.57
2023-01-05T02:27:22.929Z,998.64
2023-01-05T02:28:22.923Z,998.60
2023-01-05T02:29:22.906Z,998.65
2023-01-05T02:30:22.877Z,998.61
2023-01-05T02:31:22.875Z,998.55
2023-01-05T02:32:22.859Z,998.59
2023-01-05T02:33:22.836Z,998.60
2023-01-05T02:34:22.853Z,998.53
2023-01-05T02:35:22.813Z,998.52
2023-01-05T02:36:28.362Z,998.49
2023-01-05T02:37:23.846Z,998.39
2023-01-05T02:38:22.783Z,998.43
2023-01-05T02:39:22.875Z,998.38
2023-01-05T02:40:22.783Z,998.44
2023-01-05T02:41:22.777Z,998.43
2023-01-05T02:42:22.757Z,998.44
2023-01-05T02:43:22.740Z,998.35
2023-01-05T02:44:22.710Z,998.45
2023-01-05T02:45:22.717Z,998.47
2023-01-05T02:46:22.846Z,998.54
2023-01-05T02:47:22.735Z,998.61
2023-01-05T02:48:22.669Z,998.54
2023-01-05T02:49:22.686Z,998.55
2023-01-05T02:50:22.678Z,998.54
2023-01-05T02:51:22.633Z,998.52
2023-01-05T02:52:22.707Z,998.52
2023-01-05T02:53:22.618Z,998.62
2023-01-05T02:54:22.607Z,998.56
2023-01-05T02:55:22.608Z,998.59
2023-01-05T02:56:22.588Z,998.61
2023-01-05T02:57:22.659Z,998.57
2023-01-05T02:58:22.583Z,998.56
2023-01-05T02:59:22.557Z,998.60
2023-01-05T03:00:22.625Z,998.60
2023-01-05T03:01:22.611Z,998.60
2023-01-05T03:02:22.672Z,998.62
2023-01-05T03:03:22.653Z,998.53
2023-01-05T03:04:22.495Z,998.62
2023-01-05T03:05:22.467Z,998.55
2023-01-05T03:06:22.472Z,998.59
2023-01-05T03:07:22.439Z,998.57
2023-01-05T03:08:26.465Z,998.68
2023-01-05T03:09:23.972Z,998.64
2023-01-05T03:10:22.420Z,998.72
2023-01-05T03:11:22.427Z,998.73
2023-01-05T03:12:22.433Z,998.67
2023-01-05T03:13:22.384Z,998.68
2023-01-05T03:14:22.393Z,998.65
2023-01-05T03:15:22.363Z,998.66
2023-01-05T03:16:22.432Z,998.73
2023-01-05T03:17:22.362Z,998.75
2023-01-05T03:18:22.424Z,998.72
2023-01-05T03:19:22.329Z,998.73
2023-01-05T03:20:22.356Z,998.75
2023-01-05T03:21:22.281Z,998.77
2023-01-05T03:22:22.261Z,998.77
2023-01-05T03:23:22.298Z,998.78
2023-01-05T03:24:22.276Z,998.78
2023-01-05T03:25:22.258Z,998.80
2023-01-05T03:26:22.280Z,998.78
2023-01-05T03:27:22.223Z,998.82
2023-01-05T03:28:22.234Z,998.74
2023-01-05T03:29:22.202Z,998.83
2023-01-05T03:30:22.212Z,998.80
2023-01-05T03:31:22.243Z,998.83
2023-01-05T03:32:22.183Z,998.88
2023-01-05T03:33:22.159Z,998.87
2023-01-05T03:34:22.144Z,998.85
2023-01-05T03:35:22.156Z,998.82
2023-01-05T03:36:22.147Z,998.80
2023-01-05T03:37:22.268Z,998.84
2023-01-05T03:38:22.105Z,998.82
2023-01-05T03:39:22.105Z,998.78
2023-01-05T03:40:22.095Z,998.83
2023-01-05T03:41:22.124Z,998.82
2023-01-05T03:42:22.081Z,998.85
2023-01-05T03:43:22.038Z,998.84
2023-01-05T03:44:22.017Z,998.84
2023-01-05T03:45:22.007Z,998.90
2023-01-05T03:46:22.152Z,998.86
2023-01-05T03:47:21.976Z,998.88
2023-01-05T03:48:22.004Z,998.96
2023-01-05T03:49:21.958Z,998.93
2023-01-05T03:50:21.957Z,998.98
2023-01-05T03:51:22.007Z,998.96
2023-01-05T03:52:21.938Z,999.01
2023-01-05T03:53:21.956Z,998.96
2023-01-05T03:54:21.920Z,998.95
2023-01-05T03:55:21.913Z,998.99
2023-01-05T03:56:21.897Z,998.95
2023-01-05T03:57:21.885Z,999.06
2023-01-05T03:58:21.877Z,999.01
2023-01-05T03:59:21.893Z,999.03
2023-01-05T04:00:21.840Z,999.02
2023-01-05T04:01:21.994Z,999.01
2023-01-05T04:02:21.970Z,999.06
2023-01-05T04:03:25.068Z,999.03
2023-01-05T04:04:22.847Z,999.02
2023-01-05T04:05:21.777Z,999.04
2023-01-05T04:06:21.773Z,999.00
2023-01-05T04:07:21.772Z,998.96
2023-01-05T04:08:21.773Z,998.92
2023-01-05T04:09:21.740Z,998.90
2023-01-05T04:10:21.752Z,998.97
2023-01-05T04:11:21.718Z,998.98
2023-01-05T04:12:21.686Z,999.00
2023-01-05T04:13:21.684Z,999.02
2023-01-05T04:14:21.699Z,999.03
2023-01-05T04:15:21.699Z,999.07
2023-01-05T04:16:21.823Z,999.08
2023-01-05T04:17:21.633Z,999.14
2023-01-05T04:18:21.621Z,999.13
2023-01-05T04:19:21.612Z,999.10
2023-01-05T04:20:21.632Z,999.12
2023-01-05T04:21:21.635Z,999.12
2023-01-05T04:22:27.021Z,999.16
2023-01-05T04:23:22.563Z,999.13
2023-01-05T04:24:21.569Z,999.31
2023-01-05T04:25:21.553Z,999.19
2023-01-05T04:26:21.540Z,999.20
2023-01-05T04:27:21.533Z,999.16
2023-01-05T04:28:21.517Z,999.15
2023-01-05T04:29:21.523Z,999.13
2023-01-05T04:30:21.530Z,999.19
2023-01-05T04:31:21.663Z,999.07
2023-01-05T04:32:21.500Z,999.04
2023-01-05T04:33:21.454Z,999.02
2023-01-05T04:34:21.464Z,999.04
2023-01-05T04:35:21.435Z,999.12
2023-01-05T04:36:21.444Z,999.09
2023-01-05T04:37:21.434Z,999.09
2023-01-05T04:38:21.442Z,999.11
2023-01-05T04:39:21.386Z,999.15
2023-01-05T04:40:21.386Z,999.26
2023-01-05T04:41:21.358Z,999.28
2023-01-05T04:42:21.346Z,999.13
2023-01-05T04:43:21.347Z,999.31
2023-01-05T04:44:21.327Z,999.34
2023-01-05T04:45:21.341Z,999.31
2023-01-05T04:46:21.346Z,999.32
2023-01-05T04:47:21.307Z,999.31
2023-01-05T04:48:21.339Z,999.27
2023-01-05T04:49:21.363Z,999.28
2023-01-05T04:50:21.282Z,999.28
2023-01-05T04:51:21.246Z,999.39
2023-01-05T04:52:21.233Z,999.31
2023-01-05T04:53:21.210Z,999.30
2023-01-05T04:54:21.254Z,999.36
2023-01-05T04:55:21.197Z,999.36
2023-01-05T04:56:21.286Z,999.36
2023-01-05T04:57:21.179Z,999.38
2023-01-05T04:58:21.190Z,999.35
2023-01-05T04:59:21.159Z,999.38
2023-01-05T05:00:21.150Z,999.41
2023-01-05T05:01:21.215Z,999.45
2023-01-05T05:02:21.328Z,999.46
2023-01-05T05:03:21.151Z,999.40
2023-01-05T05:04:21.084Z,999.54
2023-01-05T05:05:21.091Z,999.46
2023-01-05T05:06:21.087Z,999.49
2023-01-05T05:07:21.088Z,999.53
2023-01-05T05:08:21.046Z,999.53
2023-01-05T05:09:21.041Z,999.59
2023-01-05T05:10:21.047Z,999.57
2023-01-05T05:11:21.083Z,999.56
2023-01-05T05:12:21.013Z,999.60
2023-01-05T05:13:20.980Z,999.58
2023-01-05T05:14:21.018Z,999.58
2023-01-05T05:15:20.966Z,999.53
2023-01-05T05:16:21.054Z,999.56
2023-01-05T05:17:20.933Z,999.59
2023-01-05T05:18:21.873Z,999.61
2023-01-05T05:19:20.976Z,999.57
2023-01-05T05:20:20.958Z,999.64
2023-01-05T05:21:20.901Z,999.63
2023-01-05T05:22:21.011Z,999.67
2023-01-05T05:23:20.889Z,999.60
2023-01-05T05:24:20.885Z,999.57
2023-01-05T05:25:20.895Z,999.55
2023-01-05T05:26:20.885Z,999.49
2023-01-05T05:27:20.814Z,999.50
2023-01-05T05:28:20.878Z,999.58
2023-01-05T05:29:20.808Z,999.66
2023-01-05T05:30:20.877Z,999.57
2023-01-05T05:31:21.317Z,999.60
2023-01-05T05:32:20.757Z,999.60
2023-01-05T05:33:20.738Z,999.61
2023-01-05T05:34:20.765Z,999.63
2023-01-05T05:35:21.112Z,999.60
2023-01-05T05:36:20.719Z,999.69
2023-01-05T05:37:20.720Z,999.71
2023-01-05T05:38:20.686Z,999.64
2023-01-05T05:39:20.738Z,999.68
2023-01-05T05:40:20.659Z,999.78
2023-01-05T05:41:20.704Z,999.78
2023-01-05T05:42:20.667Z,999.79
2023-01-05T05:43:20.692Z,999.76
2023-01-05T05:44:20.659Z,999.75
2023-01-05T05:45:20.732Z,999.82
2023-01-05T05:46:20.649Z,999.78
2023-01-05T05:47:20.606Z,999.82
2023-01-05T05:48:20.584Z,999.80
2023-01-05T05:49:20.566Z,999.78
2023-01-05T05:50:20.632Z,999.79
2023-01-05T05:51:20.571Z,999.81
2023-01-05T05:52:20.628Z,999.83
2023-01-05T05:53:20.502Z,999.83
2023-01-05T05:54:20.562Z,999.82
2023-01-05T05:55:20.623Z,999.90
2023-01-05T05:56:20.482Z,999.91
2023-01-05T05:57:20.594Z,999.84
2023-01-05T05:58:21.298Z,999.87
2023-01-05T05:59:20.438Z,999.78
2023-01-05T06:00:20.433Z,999.87
2023-01-05T06:01:20.428Z,999.90
2023-01-05T06:02:20.450Z,999.92
2023-01-05T06:03:20.483Z,999.92
2023-01-05T06:04:20.389Z,999.90
2023-01-05T06:05:21.105Z,999.87
2023-01-05T06:06:20.375Z,999.91
2023-01-05T06:07:20.352Z,999.92
2023-01-05T06:08:20.332Z,999.96
2023-01-05T06:09:20.364Z,999.99
2023-01-05T06:10:20.356Z,999.99
2023-01-05T06:11:20.291Z,1000.03
2023-01-05T06:12:20.296Z,1000.07
2023-01-05T06:13:20.306Z,1000.13
2023-01-05T06:14:20.256Z,1000.12
2023-01-05T06:15:20.370Z,1000.21
2023-01-05T06:16:20.305Z,1000.18
2023-01-05T06:17:20.252Z,1000.14
2023-01-05T06:18:20.222Z,1000.21
2023-01-05T06:19:20.416Z,1000.25
2023-01-05T06:20:20.191Z,1000.19
2023-01-05T06:21:20.253Z,1000.20
2023-01-05T06:22:20.225Z,1000.18
2023-01-05T06:23:20.258Z,1000.19
2023-01-05T06:24:20.162Z,1000.27
2023-01-05T06:25:20.142Z,1000.23
2023-01-05T06:26:20.160Z,1000.26
2023-01-05T06:27:20.222Z,1000.27
2023-01-05T06:28:20.513Z,1000.30
2023-01-05T06:29:20.105Z,1000.33
2023-01-05T06:30:20.088Z,1000.35
2023-01-05T06:31:20.126Z,1000.35
2023-01-05T06:32:20.075Z,1000.29
2023-01-05T06:33:20.061Z,1000.43
2023-01-05T06:34:20.032Z,1000.44
2023-01-05T06:35:20.033Z,1000.46
2023-01-05T06:36:20.033Z,1000.50
2023-01-05T06:37:20.003Z,1000.49
2023-01-05T06:38:20.007Z,1000.49
2023-01-05T06:39:20.016Z,1000.47
2023-01-05T06:40:19.993Z,1000.50
2023-01-05T06:41:19.995Z,1000.41
2023-01-05T06:42:23.349Z,1000.45
2023-01-05T06:43:19.996Z,1000.41
2023-01-05T06:44:19.959Z,1000.40
2023-01-05T06:45:19.929Z,1000.36
2023-01-05T06:46:19.952Z,1000.34
2023-01-05T06:47:19.906Z,1000.41
2023-01-05T06:48:19.922Z,1000.45
2023-01-05T06:49:19.929Z,1000.42
2023-01-05T06:50:19.850Z,1000.33
2023-01-05T06:51:19.835Z,1000.39
2023-01-05T06:52:19.854Z,1000.39
2023-01-05T06:53:19.824Z,1000.43
2023-01-05T06:54:19.799Z,1000.40
2023-01-05T06:55:20.429Z,1000.39
2023-01-05T06:56:19.802Z,1000.36
2023-01-05T06:57:19.769Z,1000.38
2023-01-05T06:58:19.748Z,1000.44
2023-01-05T06:59:19.748Z,1000.42
2023-01-05T07:00:19.765Z,1000.46
2023-01-05T07:01:19.877Z,1000.38
2023-01-05T07:02:19.767Z,1000.33
2023-01-05T07:03:19.713Z,1000.45
2023-01-05T07:04:19.782Z,1000.38
2023-01-05T07:05:19.669Z,1000.44
2023-01-05T07:06:19.687Z,1000.45
2023-01-05T07:07:19.656Z,1000.45
2023-01-05T07:08:19.640Z,1000.43
2023-01-05T07:09:19.642Z,1000.42
2023-01-05T07:10:19.650Z,1000.41
2023-01-05T07:11:19.635Z,1000.42
2023-01-05T07:12:19.622Z,1000.43
2023-01-05T07:13:19.599Z,1000.40
2023-01-05T07:14:19.612Z,1000.48
2023-01-05T07:15:19.556Z,1000.40
2023-01-05T07:16:19.600Z,1000.40
2023-01-05T07:17:19.573Z,1000.47
2023-01-05T07:18:19.581Z,1000.50
2023-01-05T07:19:19.502Z,1000.54
2023-01-05T07:20:19.507Z,1000.55
2023-01-05T07:21:19.499Z,1000.56
2023-01-05T07:22:19.492Z,1000.62
2023-01-05T07:23:19.503Z,1000.53
2023-01-05T07:24:19.453Z,1000.56
2023-01-05T07:25:19.443Z,1000.61
2023-01-05T07:26:19.429Z,1000.61
2023-01-05T07:27:19.427Z,1000.74
2023-01-05T07:28:19.417Z,1000.72
2023-01-05T07:29:19.448Z,1000.78
2023-01-05T07:30:19.403Z,1000.83
2023-01-05T07:31:19.416Z,1000.79
2023-01-05T07:32:19.378Z,1000.85
2023-01-05T07:33:19.345Z,1000.93
2023-01-05T07:34:19.344Z,1000.87
2023-01-05T07:35:19.573Z,1000.87
2023-01-05T07:36:19.308Z,1000.80
2023-01-05T07:37:19.311Z,1000.86
2023-01-05T07:38:19.304Z,1000.91
2023-01-05T07:39:19.286Z,1000.89
2023-01-05T07:40:19.279Z,1000.88
2023-01-05T07:41:19.278Z,1000.87
2023-01-05T07:42:19.270Z,1000.95
2023-01-05T07:43:19.252Z,1000.92
2023-01-05T07:44:19.232Z,1000.87
2023-01-05T07:45:20.167Z,1000.94
2023-01-05T07:46:19.257Z,1000.96
2023-01-05T07:47:19.243Z,1000.98
2023-01-05T07:48:23.374Z,1000.97
2023-01-05T07:49:19.162Z,1000.93
2023-01-05T07:50:19.171Z,1000.94
2023-01-05T07:51:19.149Z,1000.93
2023-01-05T07:52:19.138Z,1000.99
2023-01-05T07:53:19.167Z,1001.03
2023-01-05T07:54:19.121Z,1001.02
2023-01-05T07:55:19.104Z,1001.08
2023-01-05T07:56:19.087Z,1001.04
2023-01-05T07:57:19.075Z,1001.03
2023-01-05T07:58:19.061Z,1001.00
2023-01-05T07:59:19.118Z,1000.90
2023-01-05T08:00:19.042Z,1000.90
2023-01-05T08:01:19.125Z,1001.04
2023-01-05T08:02:19.051Z,1001.03
2023-01-05T08:03:19.000Z,1001.04
2023-01-05T08:04:19.046Z,1001.07
2023-01-05T08:05:18.999Z,1001.07
2023-01-05T08:06:18.971Z,1001.12
2023-01-05T08:07:19.069Z,1001.07
2023-01-05T08:08:24.136Z,1001.11
2023-01-05T08:09:19.950Z,1001.12
2023-01-05T08:10:18.939Z,1001.07
2023-01-05T08:11:18.930Z,1001.25
2023-01-05T08:12:18.901Z,1001.21
2023-01-05T08:13:18.906Z,1001.15
2023-01-05T08:14:18.882Z,1001.12
2023-01-05T08:15:18.866Z,1001.16
2023-01-05T08:16:18.889Z,1001.18
2023-01-05T08:17:18.887Z,1001.17
2023-01-05T08:18:18.837Z,1001.23
2023-01-05T08:19:18.815Z,1001.14
2023-01-05T08:20:18.862Z,1001.21
2023-01-05T08:21:18.791Z,1001.20
2023-01-05T08:22:18.783Z,1001.22
2023-01-05T08:23:25.376Z,1001.34
2023-01-05T08:24:19.775Z,1001.30
2023-01-05T08:25:18.767Z,1001.33
2023-01-05T08:26:18.761Z,1001.28
2023-01-05T08:27:18.748Z,1001.31
2023-01-05T08:28:18.720Z,1001.32
2023-01-05T08:29:18.838Z,1001.38
2023-01-05T08:30:18.698Z,1001.34
2023-01-05T08:31:18.727Z,1001.37
2023-01-05T08:32:18.694Z,1001.39
2023-01-05T08:33:18.655Z,1001.44
2023-01-05T08:34:18.702Z,1001.49
2023-01-05T08:35:18.728Z,1001.49
2023-01-05T08:36:18.619Z,1001.43
2023-01-05T08:37:18.608Z,1001.48
2023-01-05T08:38:18.635Z,1001.58
2023-01-05T08:39:18.608Z,1001.58
2023-01-05T08:40:18.578Z,1001.59
2023-01-05T08:41:18.595Z,1001.58
2023-01-05T08:42:18.556Z,1001.63
2023-01-05T08:43:18.546Z,1001.60
2023-01-05T08:44:18.531Z,1001.52
2023-01-05T08:45:18.513Z,1001.56
2023-01-05T08:46:18.595Z,1001.55
2023-01-05T08:47:18.614Z,1001.56
2023-01-05T08:48:18.499Z,1001.55
2023-01-05T08:49:18.482Z,1001.58
2023-01-05T08:50:18.476Z,1001.54
2023-01-05T08:51:18.459Z,1001.59
2023-01-05T08:52:18.480Z,1001.64
2023-01-05T08:53:18.419Z,1001.71
2023-01-05T08:54:18.436Z,1001.76
2023-01-05T08:55:18.410Z,1001.71
2023-01-05T08:56:18.398Z,1001.68
2023-01-05T08:57:18.416Z,1001.63
2023-01-05T08:58:18.389Z,1001.69
2023-01-05T08:59:18.410Z,1001.63
2023-01-05T09:00:18.352Z,1001.59
2023-01-05T09:01:18.424Z,1001.64
2023-01-05T09:02:25.265Z,1001.69
2023-01-05T09:03:19.378Z,1001.66
2023-01-05T09:04:18.291Z,1001.68
2023-01-05T09:05:18.295Z,1001.72
2023-01-05T09:06:18.285Z,1001.70
2023-01-05T09:07:18.311Z,1001.65
2023-01-05T09:08:18.266Z,1001.69
2023-01-05T09:09:18.289Z,1001.65
2023-01-05T09:10:18.233Z,1001.61
2023-01-05T09:11:18.228Z,1001.67
2023-01-05T09:12:18.224Z,1001.60
2023-01-05T09:13:18.213Z,1001.63
2023-01-05T09:14:18.202Z,1001.54
2023-01-05T09:15:18.204Z,1001.65
2023-01-05T09:16:35.042Z,1001.68
2023-01-05T09:17:19.175Z,1001.69
2023-01-05T09:18:18.132Z,1001.72
2023-01-05T09:19:18.117Z,1001.66
2023-01-05T09:20:18.165Z,1001.69
2023-01-05T09:21:18.093Z,1001.68
2023-01-05T09:22:18.091Z,1001.73
2023-01-05T09:23:18.103Z,1001.78
2023-01-05T09:24:18.094Z,1001.71
2023-01-05T09:25:18.072Z,1001.77
2023-01-05T09:26:18.079Z,1001.74
2023-01-05T09:27:18.038Z,1001.76
2023-01-05T09:28:18.064Z,1001.81
2023-01-05T09:29:18.037Z,1001.70
2023-01-05T09:30:18.014Z,1001.75
2023-01-05T09:31:18.022Z,1001.72
2023-01-05T09:32:18.043Z,1001.80
2023-01-05T09:33:17.963Z,1001.83
2023-01-05T09:34:17.966Z,1001.84
2023-01-05T09:35:17.940Z,1001.85
2023-01-05T09:36:17.961Z,1001.80
2023-01-05T09:37:17.908Z,1001.84
2023-01-05T09:38:17.932Z,1001.88
2023-01-05T09:39:17.925Z,1001.93
2023-01-05T09:40:17.884Z,1001.89
2023-01-05T09:41:17.891Z,1001.99
2023-01-05T09:42:17.875Z,1002.07
2023-01-05T09:43:17.859Z,1002.03
2023-01-05T09:44:17.919Z,1002.05
2023-01-05T09:45:17.821Z,1002.04
2023-01-05T09:46:17.869Z,1002.01
2023-01-05T09:47:17.837Z,1002.05
2023-01-05T09:48:17.814Z,1002.17
2023-01-05T09:49:17.773Z,1002.23
2023-01-05T09:50:17.780Z,1002.21
2023-01-05T09:51:17.745Z,1002.16
2023-01-05T09:52:17.730Z,1002.25
2023-01-05T09:53:17.750Z,1002.22
2023-01-05T09:54:17.711Z,1002.17
2023-01-05T09:55:17.915Z,1002.22
2023-01-05T09:56:42.068Z,1002.29
2023-01-05T09:57:18.804Z,1002.16
2023-01-05T09:58:17.657Z,1002.23
2023-01-05T09:59:17.729Z,1002.18
2023-01-05T10:00:17.650Z,1002.19
2023-01-05T10:01:17.732Z,1002.15
2023-01-05T10:02:17.666Z,1002.21
2023-01-05T10:03:37.017Z,1002.19
2023-01-05T10:04:18.708Z,1002.22
2023-01-05T10:05:17.699Z,1002.25
2023-01-05T10:06:17.575Z,1002.30
2023-01-05T10:07:17.610Z,1002.28
2023-01-05T10:08:17.562Z,1002.29
2023-01-05T10:09:17.562Z,1002.30
2023-01-05T10:10:17.541Z,1002.31
2023-01-05T10:11:17.511Z,1002.36
2023-01-05T10:12:17.499Z,1002.36
2023-01-05T10:13:17.551Z,1002.38
2023-01-05T10:14:17.498Z,1002.37
2023-01-05T10:15:17.476Z,1002.43
2023-01-05T10:16:17.527Z,1002.38
2023-01-05T10:17:40.595Z,1002.39
2023-01-05T10:18:18.457Z,1002.47
2023-01-05T10:19:17.437Z,1002.46
2023-01-05T10:20:17.427Z,1002.40
2023-01-05T10:21:17.391Z,1002.44
2023-01-05T10:22:17.402Z,1002.40
2023-01-05T10:23:17.377Z,1002.44
2023-01-05T10:24:17.358Z,1002.40
2023-01-05T10:25:17.383Z,1002.39
2023-01-05T10:26:17.347Z,1002.38
2023-01-05T10:27:25.863Z,1002.48
2023-01-05T10:28:18.352Z,1002.47
2023-01-05T10:29:17.306Z,1002.43
2023-01-05T10:30:17.298Z,1002.44
2023-01-05T10:31:17.358Z,1002.43
2023-01-05T10:32:17.257Z,1002.45
2023-01-05T10:33:29.577Z,1002.48
2023-01-05T10:34:18.254Z,1002.49
2023-01-05T10:35:42.000Z,1002.44
2023-01-05T10:36:27.982Z,1002.44
2023-01-05T10:37:18.232Z,1002.37
2023-01-05T10:38:17.191Z,1002.44
2023-01-05T10:39:17.190Z,1002.47
2023-01-05T10:40:17.228Z,1002.38
2023-01-05T10:41:17.176Z,1002.44
2023-01-05T10:42:17.151Z,1002.41
2023-01-05T10:43:17.198Z,1002.42
2023-01-05T10:44:17.676Z,1002.43
2023-01-05T10:45:20.052Z,1002.39
2023-01-05T10:46:32.477Z,1002.32
2023-01-05T10:47:18.142Z,1002.32
2023-01-05T10:48:17.115Z,1002.39
2023-01-05T10:49:17.110Z,1002.34
2023-01-05T10:50:17.095Z,1002.44
2023-01-05T10:51:17.074Z,1002.40
2023-01-05T10:52:17.043Z,1002.42
2023-01-05T10:53:17.019Z,1002.41
2023-01-05T10:54:17.032Z,1002.39
2023-01-05T10:55:17.060Z,1002.37
2023-01-05T10:56:17.041Z,1002.48
2023-01-05T10:57:16.971Z,1002.52
2023-01-05T10:58:16.972Z,1002.47
2023-01-05T10:59:17.001Z,1002.52
2023-01-05T11:00:16.985Z,1002.48
2023-01-05T11:01:17.100Z,1002.50
2023-01-05T11:02:16.970Z,1002.53
2023-01-05T11:03:16.917Z,1002.55
2023-01-05T11:04:35.507Z,1002.53
2023-01-05T11:05:17.964Z,1002.48
2023-01-05T11:06:16.903Z,1002.46
2023-01-05T11:07:16.874Z,1002.46
2023-01-05T11:08:16.843Z,1002.42
2023-01-05T11:09:21.781Z,1002.46
2023-01-05T11:10:17.846Z,1002.49
2023-01-05T11:11:16.827Z,1002.41
2023-01-05T11:12:16.936Z,1002.48
2023-01-05T11:13:16.828Z,1002.47
2023-01-05T11:14:16.774Z,1002.53
2023-01-05T11:15:16.875Z,1002.46
2023-01-05T11:16:16.796Z,1002.56
2023-01-05T11:17:16.756Z,1002.57
2023-01-05T11:18:17.008Z,1002.46
2023-01-05T11:19:16.870Z,1002.50
2023-01-05T11:20:16.829Z,1002.45
2023-01-05T11:21:16.729Z,1002.45
2023-01-05T11:22:16.697Z,1002.51
2023-01-05T11:23:16.673Z,1002.46
2023-01-05T11:24:16.717Z,1002.45
2023-01-05T11:25:16.680Z,1002.48
2023-01-05T11:26:16.648Z,1002.53
2023-01-05T11:27:16.639Z,1002.53
2023-01-05T11:28:16.825Z,1002.46
2023-01-05T11:29:16.677Z,1002.51
2023-01-05T11:30:16.612Z,1002.54
2023-01-05T11:31:16.633Z,1002.59
2023-01-05T11:32:16.588Z,1002.58
2023-01-05T11:33:23.025Z,1002.57
2023-01-05T11:34:17.599Z,1002.52
2023-01-05T11:35:16.878Z,1002.56
2023-01-05T11:36:16.519Z,1002.53
2023-01-05T11:37:16.524Z,1002.56
2023-01-05T11:38:16.500Z,1002.60
2023-01-05T11:39:16.494Z,1002.55
2023-01-05T11:40:16.534Z,1002.51
2023-01-05T11:41:16.460Z,1002.61
2023-01-05T11:42:23.129Z,1002.58
2023-01-05T11:43:17.474Z,1002.65
2023-01-05T11:44:16.430Z,1002.65
2023-01-05T11:45:16.429Z,1002.67
2023-01-05T11:46:16.510Z,1002.70
2023-01-05T11:47:16.401Z,1002.76
2023-01-05T11:48:16.391Z,1002.68
2023-01-05T11:49:16.384Z,1002.65
2023-01-05T11:50:16.364Z,1002.63
2023-01-05T11:51:16.377Z,1002.61
2023-01-05T11:52:16.372Z,1002.69
2023-01-05T11:53:16.332Z,1002.69
2023-01-05T11:54:16.338Z,1002.71
2023-01-05T11:55:16.304Z,1002.70
2023-01-05T11:56:16.305Z,1002.72
2023-01-05T11:57:16.304Z,1002.69
2023-01-05T11:58:16.306Z,1002.71
2023-01-05T11:59:16.321Z,1002.64
2023-01-05T12:00:16.325Z,1002.66
2023-01-05T12:01:16.350Z,1002.61
2023-01-05T12:02:16.223Z,1002.62
2023-01-05T12:03:16.302Z,1002.56
2023-01-05T12:04:16.313Z,1002.55
2023-01-05T12:05:16.207Z,1002.58
2023-01-05T12:06:16.199Z,1002.56
2023-01-05T12:07:16.175Z,1002.52
2023-01-05T12:08:16.182Z,1002.48
2023-01-05T12:09:16.254Z,1002.49
2023-01-05T12:10:16.183Z,1002.50
2023-01-05T12:11:16.131Z,1002.53
2023-01-05T12:12:16.108Z,1002.53
2023-01-05T12:13:16.115Z,1002.60
2023-01-05T12:14:16.095Z,1002.62
2023-01-05T12:15:16.094Z,1002.58
2023-01-05T12:16:16.209Z,1002.54
2023-01-05T12:17:16.065Z,1002.57
2023-01-05T12:18:16.048Z,1002.59